Flight Track Log - Related Links

Times and Time Zones

All times are in EST time to prevent confusion due to time zone crossing. See the UPS2062 flight status page for this flight to view local times or setup timezone preferences in your user account.

Time Position Orientation Groundspeed Altitude Reporting Facility
EST Latitude Longitude Course Direction KTS MPH feet Rate Location/Type
Thu 03:15:13 PM 38.1586 -85.7383 358° North 158 182 37,000  Level Indianapolis Center
Thu 03:16:28 PM 38.0928 -85.7361 178° South 207 238 4,400 -12,788 Descending Indianapolis Center
Thu 03:17:30 PM 38.0761 -85.8006 252° West 208 239 7,800 2,661 Climbing Indianapolis Center
Thu 03:18:32 PM 38.0753 -85.8767 269° West 215 247 9,900 1,452 Climbing Indianapolis Center
Thu 03:19:00 PM 38.1943 -85.4441 North  Level Estimated
Thu 03:19:34 PM 38.1356 -85.9175 332° Northwest 286 329 10,800  Level Indianapolis Center
Thu 03:20:00 PM 38.2469 -85.3002 358° North  Level Estimated
Thu 03:20:36 PM 38.2103 -85.8225 45° Northeast 384 442 13,100  Level Indianapolis Center
Thu 03:26:27 PM 38.7022 -85.0633 45° Northeast 516 594 28,700 2,636 Climbing FlightAware (KCVG)
Thu 03:27:28 PM 38.7939 -84.9206 50° Northeast 513 590 31,200 2,471 Climbing FlightAware (KCVG)
Thu 03:28:09 PM 38.8604 -84.8165 51° Northeast 507 583 32,900 2,074 Climbing FlightAware (KCVG)
Thu 03:28:49 PM 38.8797 -84.7864 51° Northeast 505 581 34,000 1,778 Climbing FlightAware (KCVG)
Thu 03:29:30 PM 38.9639 -84.6543 51° Northeast 505 581 35,300 1,500 Climbing FlightAware (KCVG)
Thu 03:30:09 PM 39.0226 -84.5618 51° Northeast 508 585 36,000 483 Climbing FlightAware (KCVG)
Thu 03:30:57 PM 39.1056 -84.4308 51° Northeast 510 587 36,000  Level FlightAware
Thu 03:31:38 PM 39.1702 -84.3282 51° Northeast 508 585 36,000  Level FlightAware
Thu 03:32:17 PM 39.2242 -84.2424 51° Northeast 507 583 36,000  Level FlightAware
Thu 03:32:58 PM 39.2873 -84.1417 51° Northeast 505 581 36,000 59 Level FlightAware
Thu 03:33:58 PM 39.3659 -84.0158 51° Northeast 502 578 36,100 513 Climbing FlightAware
Thu 03:34:55 PM 39.3659 -84.0158 51° Northeast 499 574 37,000 446 Climbing FlightAware
Thu 03:35:59 PM 39.5491 -83.7205 51° Northeast 507 583 37,000  Level FlightAware
Thu 03:36:38 PM 39.6080 -83.6251 51° Northeast 507 583 37,000  Level FlightAware
Thu 03:37:15 PM 39.6612 -83.5386 51° Northeast 507 583 37,000  Level FlightAware
Thu 03:40:59 PM 39.9466 -83.0702 51° Northeast 506 582 37,000  Level FlightAware
Thu 03:42:02 PM 40.0773 -82.8532 52° Northeast 505 581 37,000  Level FlightAware
Thu 03:42:43 PM 40.1315 -82.7629 52° Northeast 505 581 37,000  Level FlightAware
Thu 03:43:22 PM 40.1917 -82.6622 52° Northeast 506 582 37,000  Level FlightAware
Thu 03:43:55 PM 40.2322 -82.5943 52° Northeast 506 582 37,000  Level FlightAware
Thu 03:44:42 PM 40.2933 -82.4916 52° Northeast 506 582 37,000  Level FlightAware
Thu 03:45:36 PM 40.3848 -82.3373 52° Northeast 506 582 37,000  Level FlightAware
Thu 03:46:28 PM 40.4433 -82.2381 52° Northeast 505 581 37,000  Level Indianapolis Center
Thu 03:47:31 PM 40.5439 -82.0669 52° Northeast 505 581 37,000  Level Indianapolis Center
Thu 03:48:33 PM 40.6194 -81.9086 58° Northeast 505 581 37,000  Level Indianapolis Center
Thu 03:49:35 PM 40.6878 -81.7419 62° Northeast 512 589 37,000  Level Indianapolis Center
Thu 03:50:37 PM 40.7553 -81.5742 62° Northeast 515 593 37,000  Level Indianapolis Center
Thu 03:51:39 PM 40.8231 -81.4061 62° Northeast 518 596 37,000  Level Indianapolis Center
Thu 03:52:41 PM 40.8892 -81.2364 63° Northeast 519 597 37,000  Level Indianapolis Center
Thu 03:53:43 PM 40.9675 -81.0392 62° Northeast 520 598 37,000  Level Indianapolis Center
Thu 03:54:45 PM 41.0336 -80.8694 63° Northeast 519 597 37,000  Level Indianapolis Center
Thu 03:55:47 PM 41.0997 -80.6981 63° Northeast 519 597 37,000  Level Indianapolis Center
Thu 03:57:15 PM 41.1986 -80.4431 63° Northeast 520 598 37,000  Level Cleveland Center
Thu 03:58:17 PM 41.2572 -80.2928 63° Northeast 520 598 37,000  Level Cleveland Center
Thu 03:59:19 PM 41.3353 -80.0872 63° Northeast 520 598 37,000  Level Cleveland Center
Thu 04:00:21 PM 41.4025 -79.9122 63° Northeast 520 598 37,000  Level Cleveland Center
Thu 04:01:24 PM 41.4667 -79.7394 64° Northeast 521 600 37,000  Level Cleveland Center
Thu 04:02:26 PM 41.5314 -79.5678 63° Northeast 520 598 37,000  Level Cleveland Center
Thu 04:03:28 PM 41.5961 -79.3931 64° Northeast 523 602 37,000  Level Cleveland Center
Thu 04:04:30 PM 41.6672 -79.1997 64° Northeast 520 598 37,000  Level Cleveland Center
Thu 04:05:32 PM 41.7314 -79.0261 64° Northeast 521 600 37,000  Level Cleveland Center
Thu 04:06:34 PM 41.8000 -78.8356 64° Northeast 523 602 37,000  Level Cleveland Center
Thu 04:07:36 PM 41.8633 -78.6622 64° Northeast 521 600 37,000  Level Cleveland Center
Thu 04:08:38 PM 41.9267 -78.4864 64° Northeast 522 601 37,000  Level Cleveland Center
Thu 04:09:40 PM 41.9894 -78.3114 64° Northeast 522 601 37,000  Level Cleveland Center
Thu 04:10:42 PM 42.0589 -78.1175 64° Northeast 523 602 37,000  Level Cleveland Center
Thu 04:11:44 PM 42.1211 -77.9433 64° Northeast 521 600 37,000 -339 Level Cleveland Center
Thu 04:12:46 PM 42.1833 -77.7678 64° Northeast 523 602 36,300 -919 Descending Cleveland Center
Thu 04:13:48 PM 42.2436 -77.5914 65° Northeast 524 603 35,100 -624 Descending Cleveland Center
Thu 04:14:51 PM 42.3169 -77.3825 65° Northeast 521 600 35,000 -48 Descending Cleveland Center
Thu 04:15:53 PM 42.3775 -77.2072 65° Northeast 521 600 35,000  Level Cleveland Center
Thu 04:16:55 PM 42.4336 -77.0253 67° East 527 606 35,000  Level Cleveland Center
Thu 04:17:46 PM 42.4567 -76.8689 79° East 538 619 35,000  Level Boston Center
Thu 04:18:46 PM 42.4789 -76.6672 81° East 542 624 35,000  Level Boston Center
Thu 04:19:46 PM 42.5044 -76.4247 82° East 545 627 35,000  Level Boston Center
Thu 04:20:50 PM 42.5239 -76.2339 82° East 549 632 35,000 -48 Level Boston Center
Thu 04:21:50 PM 42.5297 -76.0447 88° East 549 632 34,900 -942 Descending Boston Center
Thu 04:22:51 PM 42.5075 -75.8011 97° East 550 633 33,100 -1,785 Descending Boston Center
Thu 04:23:51 PM 42.4906 -75.6031 97° East 539 620 31,300 -1,694 Descending Boston Center
Thu 04:24:55 PM 42.4786 -75.4111 95° East 520 598 29,600 -1,584 Descending Boston Center
Thu 04:25:56 PM 42.4675 -75.2236 95° East 507 583 28,000 -1,587 Descending Boston Center
Thu 04:26:56 PM 42.4714 -75.0383 88° East 496 571 26,400 -1,623 Descending Boston Center
Thu 04:27:58 PM 42.4747 -74.8542 89° East 491 565 24,700 -1,623 Descending Boston Center
Thu 04:28:58 PM 42.4783 -74.6789 88° East 474 545 23,100 -1,548 Descending Boston Center
Thu 04:30:02 PM 42.4825 -74.4731 88° East 460 529 21,500 -1,248 Descending Boston Center
Thu 04:31:03 PM 42.4847 -74.3319 89° East 446 513 20,500 -1,240 Descending Boston Center
Thu 04:32:03 PM 42.4767 -74.1506 93° East 426 490 19,000 -1,388 Descending Boston Center
Thu 04:33:04 PM 42.4472 -73.9897 104° East 410 472 17,700 -968 Descending Boston Center
Thu 04:34:07 PM 42.4206 -73.8486 104° East 393 452 17,000 -1,065 Descending Boston Center
Thu 04:35:08 PM 42.3931 -73.7106 105° East 384 442 15,500 -1,293 Descending Boston Center
Thu 04:36:03 PM 42.3658 -73.5772 105° East 376 433 14,500 -1,082 Descending Boston Center
Thu 04:36:09 PM 42.3636 -73.5628 102° East 380 437 14,400 -1,102 Descending Boston Center
Thu 04:36:52 PM 42.3461 -73.4733 105° East 372 428 13,600 -1,082 Descending Boston Center
Thu 04:37:10 PM 42.3378 -73.4297 104° East 369 425 13,300 -1,063 Descending Boston Center
Thu 04:38:11 PM 42.3114 -73.2950 105° East 358 412 12,200 -1,049 Descending Boston Center
Thu 04:38:53 PM 42.2933 -73.2147 107° East 335 386 11,500 -984 Descending Boston Center
Thu 04:39:12 PM 42.2869 -73.1742 102° East 339 390 11,200 -1,475 Descending Boston Center
Thu 04:39:54 PM 42.2683 -73.0922 107° East 339 390 10,000 -1,835 Descending Boston Center
Thu 04:41:13 PM 42.2333 -72.9342 107° East 335 386 7,500 -1,738 Descending Boston Center
Thu 04:42:19 PM 42.2014 -72.8033 108° East 320 368 5,800 -1,512 Descending Boston Center
Thu 04:43:20 PM 42.1742 -72.6919 108° East 304 350 4,300 -1,091 Descending Boston Center
Thu 04:44:20 PM 42.1414 -72.5961 115° Southeast 262 302 3,600 -887 Descending Boston Center
Thu 04:45:15 PM 42.0997 -72.5347 132° Southeast 222 255 2,600 -652 Descending Boston Center
Thu 04:45:52 PM 42.0692 -72.5356 181° South 185 213 2,600 -165 Level Boston Center
Thu 04:47:04 PM 42.0244 -72.5772 215° Southwest 146 168 2,300 -451 Descending Boston Center
Thu 04:48:05 PM 41.9961 -72.6106 221° Southwest 130 150 1,600 -744 Descending Boston Center
Thu 04:49:05 PM 41.9694 -72.6472 226° Southwest 138 159 800 -800 Descending Boston Center

Login

Don't have an account? Register now (free) for customized features, flight alerts, and more!